createdAt,value
2023-02-23T00:01:53.400Z,19.70
2023-02-23T00:04:19.934Z,20.20
2023-02-23T00:06:46.574Z,22.77
2023-02-23T00:09:23.000Z,18.90
2023-02-23T00:11:54.705Z,19.20
2023-02-23T00:14:27.189Z,21.17
2023-02-23T00:16:55.173Z,17.97
2023-02-23T00:19:24.564Z,19.47
2023-02-23T00:21:51.722Z,21.43
2023-02-23T00:24:19.755Z,19.73
2023-02-23T00:26:47.769Z,25.23
2023-02-23T00:29:18.327Z,23.27
2023-02-23T00:31:46.413Z,17.53
2023-02-23T00:34:15.326Z,20.67
2023-02-23T00:36:42.490Z,20.00
2023-02-23T00:39:19.711Z,20.50
2023-02-23T00:41:46.846Z,26.87
2023-02-23T00:44:15.324Z,21.47
2023-02-23T00:46:43.346Z,25.20
2023-02-23T00:49:11.918Z,22.03
2023-02-23T00:51:39.217Z,24.40
2023-02-23T00:54:06.523Z,24.70
2023-02-23T00:56:33.705Z,26.67
2023-02-23T00:59:00.242Z,26.80
2023-02-23T01:01:27.428Z,24.40
2023-02-23T01:03:54.106Z,25.20
2023-02-23T01:06:20.689Z,26.47
2023-02-23T01:08:49.900Z,25.20
2023-02-23T01:11:22.698Z,25.77
2023-02-23T01:13:52.080Z,28.90
2023-02-23T01:16:21.911Z,28.80
2023-02-23T01:18:49.030Z,27.77
2023-02-23T01:21:19.453Z,31.80
2023-02-23T01:23:46.646Z,28.30
2023-02-23T01:26:22.224Z,25.87
2023-02-23T01:28:54.220Z,29.37
2023-02-23T01:31:22.593Z,29.20
2023-02-23T01:33:54.411Z,27.63
2023-02-23T01:36:21.253Z,32.63
2023-02-23T01:38:49.148Z,30.60
2023-02-23T01:41:16.646Z,31.87
2023-02-23T01:44:06.209Z,34.33
2023-02-23T01:46:39.069Z,33.83
2023-02-23T01:49:10.372Z,38.83
2023-02-23T01:51:52.218Z,38.80
2023-02-23T01:54:23.519Z,33.57
2023-02-23T01:56:58.253Z,40.63
2023-02-23T01:59:36.484Z,36.13
2023-02-23T02:02:05.232Z,32.17
2023-02-23T02:04:45.164Z,33.43
2023-02-23T02:07:21.303Z,32.10
2023-02-23T02:10:09.326Z,33.17
2023-02-23T02:12:35.962Z,36.10
2023-02-23T02:15:05.009Z,32.80
2023-02-23T02:17:57.735Z,32.00
2023-02-23T02:20:32.586Z,37.93
2023-02-23T02:23:10.807Z,31.43
2023-02-23T02:25:56.441Z,32.73
2023-02-23T02:29:00.811Z,37.07
2023-02-23T02:31:58.706Z,33.87
2023-02-23T02:35:09.369Z,31.67
2023-02-23T02:38:21.270Z,34.43
2023-02-23T02:41:13.388Z,39.45
2023-02-23T02:43:50.879Z,36.97
2023-02-23T02:46:20.275Z,34.93
2023-02-23T02:49:14.000Z,37.30
2023-02-23T02:51:55.530Z,35.50
2023-02-23T02:54:43.534Z,35.83
2023-02-23T02:57:12.850Z,37.27
2023-02-23T03:00:06.680Z,36.63
2023-02-23T03:02:55.744Z,39.20
2023-02-23T03:05:46.785Z,40.93
2023-02-23T03:08:57.901Z,38.33
2023-02-23T03:11:53.719Z,41.13
2023-02-23T03:14:52.358Z,42.30
2023-02-23T03:17:51.824Z,38.73
2023-02-23T03:20:56.719Z,38.23
2023-02-23T03:24:03.004Z,38.60
2023-02-23T03:27:13.716Z,37.13
2023-02-23T03:30:01.915Z,38.83
2023-02-23T03:32:54.572Z,39.70
2023-02-23T03:35:55.691Z,38.40
2023-02-23T03:39:02.773Z,33.63
2023-02-23T03:41:52.190Z,36.37
2023-02-23T03:44:44.346Z,36.90
2023-02-23T03:47:31.367Z,38.10
2023-02-23T03:50:22.731Z,35.73
2023-02-23T03:53:12.999Z,38.03
2023-02-23T03:56:02.101Z,36.43
2023-02-23T03:59:00.187Z,35.70
2023-02-23T04:01:47.809Z,28.60
2023-02-23T04:04:32.946Z,39.97
2023-02-23T04:07:20.955Z,34.00
2023-02-23T04:10:06.838Z,32.30
2023-02-23T04:13:16.683Z,34.33
2023-02-23T04:15:55.364Z,31.93
2023-02-23T04:18:28.699Z,34.13
2023-02-23T04:20:56.993Z,34.97
2023-02-23T04:23:24.567Z,37.50
2023-02-23T04:25:52.143Z,43.43
2023-02-23T04:28:20.501Z,39.22
2023-02-23T04:30:47.741Z,38.40
2023-02-23T04:33:14.582Z,40.63
2023-02-23T04:35:41.936Z,35.77
2023-02-23T04:38:08.754Z,37.33
2023-02-23T04:40:35.615Z,38.33
2023-02-23T04:43:02.520Z,35.80
2023-02-23T04:45:29.273Z,38.13
2023-02-23T04:47:56.209Z,34.13
2023-02-23T04:50:22.987Z,40.40
2023-02-23T04:52:50.209Z,38.00
2023-02-23T04:55:24.304Z,34.13
2023-02-23T04:57:52.542Z,38.50
2023-02-23T05:00:19.470Z,37.27
2023-02-23T05:02:46.084Z,38.43
2023-02-23T05:05:12.961Z,38.50
2023-02-23T05:07:39.754Z,39.57
2023-02-23T05:10:07.387Z,38.13
2023-02-23T05:12:33.948Z,35.53
2023-02-23T05:15:00.637Z,38.33
2023-02-23T05:17:27.347Z,37.33
2023-02-23T05:19:53.909Z,36.40
2023-02-23T05:22:20.581Z,34.50
2023-02-23T05:24:47.580Z,37.33
2023-02-23T05:27:15.407Z,39.03
2023-02-23T05:29:42.012Z,37.77
2023-02-23T05:32:08.637Z,39.70
2023-02-23T05:34:35.403Z,34.67
2023-02-23T05:37:01.997Z,39.07
2023-02-23T05:39:28.758Z,37.83
2023-02-23T05:41:55.381Z,36.63
2023-02-23T05:44:21.961Z,41.10
2023-02-23T05:46:48.544Z,41.57
2023-02-23T05:49:15.175Z,36.37
2023-02-23T05:51:41.800Z,36.10
2023-02-23T05:54:09.240Z,36.83
2023-02-23T05:56:36.533Z,36.70
2023-02-23T05:59:04.817Z,38.80
2023-02-23T06:01:32.101Z,42.63
2023-02-23T06:03:58.948Z,48.40
2023-02-23T06:06:25.947Z,37.43
2023-02-23T06:08:55.795Z,42.63
2023-02-23T06:11:22.754Z,38.77
2023-02-23T06:13:49.704Z,45.07
2023-02-23T06:16:16.626Z,42.13
2023-02-23T06:18:43.318Z,39.47
2023-02-23T06:21:10.118Z,36.90
2023-02-23T06:23:37.976Z,35.77
2023-02-23T06:26:04.747Z,37.63
2023-02-23T06:28:31.433Z,40.30
2023-02-23T06:30:58.131Z,39.07
2023-02-23T06:33:25.551Z,39.10
2023-02-23T06:35:52.984Z,37.67
2023-02-23T06:38:20.432Z,42.77
2023-02-23T06:40:47.131Z,45.53
2023-02-23T06:43:13.743Z,45.77
2023-02-23T06:45:40.804Z,47.40
2023-02-23T06:48:07.804Z,42.67
2023-02-23T06:50:34.437Z,39.33
2023-02-23T06:53:01.115Z,39.43
2023-02-23T06:55:27.733Z,38.90
2023-02-23T06:57:54.435Z,44.20
2023-02-23T07:00:21.508Z,44.60
2023-02-23T07:02:48.084Z,40.83
2023-02-23T07:05:14.767Z,47.40
2023-02-23T07:07:41.382Z,37.70
2023-02-23T07:10:08.603Z,38.30
2023-02-23T07:12:35.179Z,37.53
2023-02-23T07:15:01.759Z,38.43
2023-02-23T07:17:28.360Z,39.97
2023-02-23T07:19:55.386Z,32.90
2023-02-23T07:22:22.466Z,40.90
2023-02-23T07:24:49.236Z,34.97
2023-02-23T07:27:15.840Z,33.57
2023-02-23T07:29:42.383Z,35.97
2023-02-23T07:32:09.206Z,32.37
2023-02-23T07:34:37.070Z,32.07
2023-02-23T07:37:03.691Z,30.67
2023-02-23T07:39:30.992Z,31.07
2023-02-23T07:41:58.257Z,29.23
2023-02-23T07:44:24.828Z,29.87
2023-02-23T07:46:52.782Z,28.77
2023-02-23T07:49:19.441Z,31.17
2023-02-23T07:51:46.040Z,29.20
2023-02-23T07:54:12.710Z,33.93
2023-02-23T07:56:39.334Z,33.07
2023-02-23T07:59:05.902Z,28.53
2023-02-23T08:01:32.557Z,31.30
2023-02-23T08:03:59.245Z,28.83
2023-02-23T08:06:25.869Z,26.90
2023-02-23T08:08:52.465Z,23.60
2023-02-23T08:11:19.505Z,27.00
2023-02-23T08:13:46.294Z,27.60
2023-02-23T08:16:12.951Z,23.83
2023-02-23T08:18:39.769Z,27.40
2023-02-23T08:21:06.493Z,25.40
2023-02-23T08:23:33.927Z,24.23
2023-02-23T08:26:01.736Z,23.47
2023-02-23T08:28:29.609Z,24.10
2023-02-23T08:30:56.370Z,23.93
2023-02-23T08:33:23.424Z,25.30
2023-02-23T08:35:50.058Z,20.53
2023-02-23T08:38:18.218Z,22.03
2023-02-23T08:40:45.111Z,21.23
2023-02-23T08:43:11.704Z,19.37
2023-02-23T08:45:39.485Z,17.77
2023-02-23T08:48:07.686Z,20.47
2023-02-23T08:50:34.375Z,21.30
2023-02-23T08:53:00.988Z,18.80
2023-02-23T08:55:27.564Z,17.43
2023-02-23T08:57:54.211Z,17.87
2023-02-23T09:00:21.222Z,15.70
2023-02-23T09:02:48.221Z,13.90
2023-02-23T09:05:15.271Z,13.30
2023-02-23T09:07:44.939Z,14.07
2023-02-23T09:10:16.927Z,11.80
2023-02-23T09:12:43.495Z,13.30
2023-02-23T09:15:10.630Z,12.03
2023-02-23T09:17:37.961Z,11.43
2023-02-23T09:20:05.586Z,14.73
2023-02-23T09:22:32.539Z,12.13
2023-02-23T09:24:59.236Z,11.23
2023-02-23T09:27:25.967Z,12.20
2023-02-23T09:29:52.523Z,11.40
2023-02-23T09:32:19.368Z,11.47
2023-02-23T09:34:48.562Z,8.67
2023-02-23T09:37:15.823Z,12.37
2023-02-23T09:39:43.485Z,11.47
2023-02-23T09:42:45.818Z,12.80
2023-02-23T09:45:29.125Z,14.20
2023-02-23T09:48:05.071Z,15.50
2023-02-23T09:50:36.043Z,12.90
2023-02-23T09:53:18.208Z,17.80
2023-02-23T09:55:45.282Z,12.43
2023-02-23T09:58:25.500Z,12.07
2023-02-23T10:01:11.136Z,10.33
2023-02-23T10:03:49.187Z,12.33
2023-02-23T10:06:18.265Z,12.48
2023-02-23T10:09:03.166Z,10.83
2023-02-23T10:11:41.814Z,11.10
2023-02-23T10:14:29.890Z,12.13
2023-02-23T10:17:08.711Z,10.57
2023-02-23T10:19:50.595Z,13.67
2023-02-23T10:22:19.465Z,10.50
2023-02-23T10:25:04.772Z,9.47
2023-02-23T10:27:40.547Z,7.53
2023-02-23T10:30:18.964Z,9.57
2023-02-23T10:32:49.505Z,10.03
2023-02-23T10:35:21.181Z,11.83
2023-02-23T10:37:50.270Z,14.17
2023-02-23T10:40:23.253Z,7.60
2023-02-23T10:42:51.219Z,9.23
2023-02-23T10:45:23.533Z,9.73
2023-02-23T10:48:08.570Z,8.60
2023-02-23T10:50:38.338Z,8.50
2023-02-23T10:53:11.471Z,8.73
2023-02-23T10:55:38.054Z,9.07
2023-02-23T10:58:17.723Z,7.67
2023-02-23T11:00:56.349Z,8.97
2023-02-23T11:03:25.526Z,7.00
2023-02-23T11:05:53.678Z,7.40
2023-02-23T11:08:33.209Z,7.10
2023-02-23T11:11:20.296Z,9.67
2023-02-23T11:13:49.705Z,6.33
2023-02-23T11:16:21.993Z,8.53
2023-02-23T11:18:55.867Z,6.83
2023-02-23T11:21:34.847Z,6.85
2023-02-23T11:24:15.053Z,7.17
2023-02-23T11:26:43.964Z,11.73
2023-02-23T11:29:33.480Z,5.73
2023-02-23T11:32:09.889Z,6.47
2023-02-23T11:34:40.928Z,5.33
2023-02-23T11:37:20.346Z,6.63
2023-02-23T11:39:59.589Z,6.20
2023-02-23T11:42:33.198Z,7.03
2023-02-23T11:45:17.087Z,7.17
2023-02-23T11:47:52.932Z,8.70
2023-02-23T11:50:29.813Z,10.03
2023-02-23T11:53:07.022Z,8.80
2023-02-23T11:55:37.467Z,6.20
2023-02-23T11:58:22.497Z,6.23
2023-02-23T12:01:04.073Z,8.85
2023-02-23T12:03:33.889Z,6.33
2023-02-23T12:06:02.419Z,6.60
2023-02-23T12:08:39.554Z,6.43
2023-02-23T12:11:12.347Z,4.77
2023-02-23T12:13:50.851Z,5.77
2023-02-23T12:16:28.847Z,5.10
2023-02-23T12:19:20.599Z,5.87
2023-02-23T12:22:01.811Z,6.60
2023-02-23T12:24:34.201Z,8.10
2023-02-23T12:27:23.044Z,13.43
2023-02-23T12:30:01.132Z,11.53
2023-02-23T12:33:10.319Z,7.07
2023-02-23T12:35:52.333Z,9.23
2023-02-23T12:38:44.006Z,6.67
2023-02-23T12:41:14.200Z,8.90
2023-02-23T12:43:51.476Z,9.10
2023-02-23T12:46:23.248Z,9.27
2023-02-23T12:49:27.536Z,6.83
2023-02-23T12:52:09.201Z,10.43
2023-02-23T12:54:37.063Z,10.27
2023-02-23T12:57:30.234Z,8.17
2023-02-23T13:00:09.745Z,9.37
2023-02-23T13:02:46.297Z,7.57
2023-02-23T13:05:22.480Z,7.67
2023-02-23T13:08:13.273Z,9.63
2023-02-23T13:10:55.389Z,4.93
2023-02-23T13:13:42.040Z,10.10
2023-02-23T13:16:44.252Z,7.10
2023-02-23T13:19:35.121Z,8.00
2023-02-23T13:22:30.574Z,6.80
2023-02-23T13:25:04.612Z,7.97
2023-02-23T13:27:40.328Z,13.07
2023-02-23T13:30:11.134Z,6.87
2023-02-23T13:32:39.172Z,8.20
2023-02-23T13:35:08.227Z,8.43
2023-02-23T13:37:48.131Z,9.13
2023-02-23T13:40:23.821Z,11.87
2023-02-23T13:42:58.677Z,5.97
2023-02-23T13:45:55.660Z,7.43
2023-02-23T13:48:32.766Z,7.77
2023-02-23T13:50:59.290Z,7.40
2023-02-23T13:53:57.901Z,6.60
2023-02-23T13:56:31.484Z,7.23
2023-02-23T13:59:04.584Z,6.70
2023-02-23T14:01:35.661Z,7.03
2023-02-23T14:04:12.565Z,7.27
2023-02-23T14:06:48.387Z,6.37
2023-02-23T14:09:27.952Z,10.50
2023-02-23T14:12:32.428Z,7.97
2023-02-23T14:15:25.271Z,7.50
2023-02-23T14:18:25.211Z,7.57
2023-02-23T14:20:56.233Z,6.70
2023-02-23T14:23:22.756Z,9.07
2023-02-23T14:26:13.154Z,8.03
2023-02-23T14:28:50.226Z,10.83
2023-02-23T14:31:23.006Z,5.23
2023-02-23T14:34:00.206Z,8.67
2023-02-23T14:36:28.804Z,6.10
2023-02-23T14:39:00.552Z,10.50
2023-02-23T14:41:34.830Z,7.23
2023-02-23T14:44:28.370Z,5.77
2023-02-23T14:47:07.195Z,8.50
2023-02-23T14:49:37.761Z,11.00
2023-02-23T14:52:19.682Z,8.17
2023-02-23T14:54:46.996Z,7.23
2023-02-23T14:57:22.672Z,8.87
2023-02-23T14:59:54.018Z,10.30
2023-02-23T15:02:24.237Z,10.20
2023-02-23T15:04:51.186Z,11.13
2023-02-23T15:07:38.919Z,9.93
2023-02-23T15:10:15.152Z,12.17
2023-02-23T15:12:41.786Z,10.83
2023-02-23T15:15:22.211Z,11.50
2023-02-23T15:17:54.479Z,10.20
2023-02-23T15:20:28.652Z,11.07
2023-02-23T15:22:59.109Z,15.90
2023-02-23T15:25:37.019Z,15.07
2023-02-23T15:28:25.469Z,14.40
2023-02-23T15:30:55.157Z,10.03
2023-02-23T15:33:28.316Z,15.30
2023-02-23T15:36:19.045Z,14.23
2023-02-23T15:38:50.057Z,14.30
2023-02-23T15:41:35.946Z,13.03
2023-02-23T15:44:24.208Z,11.73
2023-02-23T15:47:03.837Z,12.43
2023-02-23T15:49:40.352Z,10.23
2023-02-23T15:52:16.806Z,13.27
2023-02-23T15:55:00.062Z,14.23
2023-02-23T15:57:30.161Z,13.67
2023-02-23T15:59:58.804Z,10.87
2023-02-23T16:02:26.051Z,11.50
2023-02-23T16:04:53.665Z,16.07
2023-02-23T16:07:20.388Z,11.70
2023-02-23T16:10:14.659Z,10.10
2023-02-23T16:12:47.249Z,10.17
2023-02-23T16:15:26.866Z,12.50
2023-02-23T16:18:04.789Z,12.93
2023-02-23T16:20:36.758Z,11.37
2023-02-23T16:23:04.739Z,14.13
2023-02-23T16:25:32.597Z,10.87
2023-02-23T16:28:20.556Z,10.90
2023-02-23T16:30:58.421Z,15.80
2023-02-23T16:33:42.613Z,13.60
2023-02-23T16:36:13.218Z,13.40
2023-02-23T16:38:44.320Z,14.13
2023-02-23T16:41:19.384Z,11.20
2023-02-23T16:43:48.926Z,12.57
2023-02-23T16:46:17.467Z,14.63
2023-02-23T16:48:44.318Z,10.87
2023-02-23T16:51:15.631Z,14.80
2023-02-23T16:53:43.100Z,14.73
2023-02-23T16:56:14.744Z,14.50
2023-02-23T16:58:47.338Z,15.73
2023-02-23T17:01:14.698Z,15.00
2023-02-23T17:03:52.375Z,13.47
2023-02-23T17:06:20.100Z,15.23
2023-02-23T17:08:57.205Z,11.40
2023-02-23T17:11:24.820Z,12.20
2023-02-23T17:13:52.448Z,13.67
2023-02-23T17:16:19.608Z,13.40
2023-02-23T17:18:46.533Z,11.30
2023-02-23T17:21:23.718Z,9.90
2023-02-23T17:23:51.753Z,10.93
2023-02-23T17:26:24.602Z,13.47
2023-02-23T17:28:51.940Z,12.57
2023-02-23T17:31:20.642Z,12.00
2023-02-23T17:33:47.802Z,15.18
2023-02-23T17:36:16.611Z,15.07
2023-02-23T17:38:46.013Z,14.63
2023-02-23T17:41:18.877Z,17.20
2023-02-23T17:43:45.794Z,13.67
2023-02-23T17:46:13.247Z,20.80
2023-02-23T17:48:40.758Z,23.20
2023-02-23T17:51:10.125Z,15.00
2023-02-23T17:53:36.890Z,14.60
2023-02-23T17:56:03.956Z,14.40
2023-02-23T17:58:30.674Z,16.13
2023-02-23T18:00:59.268Z,14.30
2023-02-23T18:03:34.188Z,16.43
2023-02-23T18:06:02.731Z,13.50
2023-02-23T18:08:29.966Z,13.17
2023-02-23T18:10:57.398Z,12.40
2023-02-23T18:13:25.674Z,13.27
2023-02-23T18:16:00.940Z,11.77
2023-02-23T18:18:28.302Z,13.23
2023-02-23T18:20:57.519Z,12.07
2023-02-23T18:23:26.127Z,14.90
2023-02-23T18:25:52.689Z,10.60
2023-02-23T18:28:19.295Z,14.03
2023-02-23T18:30:45.983Z,17.77
2023-02-23T18:33:13.431Z,17.97
2023-02-23T18:35:44.825Z,17.50
2023-02-23T18:38:13.802Z,19.70
2023-02-23T18:40:40.922Z,17.23
2023-02-23T18:43:08.225Z,17.10
2023-02-23T18:45:34.827Z,15.27
2023-02-23T18:48:01.596Z,14.97
2023-02-23T18:50:28.353Z,17.20
2023-02-23T18:52:57.032Z,12.47
2023-02-23T18:55:24.810Z,14.23
2023-02-23T18:57:52.666Z,15.13
2023-02-23T19:00:20.159Z,16.73
2023-02-23T19:02:47.023Z,15.43
2023-02-23T19:05:14.209Z,15.03
2023-02-23T19:07:41.081Z,20.60
2023-02-23T19:10:12.039Z,15.10
2023-02-23T19:12:40.088Z,16.80
2023-02-23T19:15:08.841Z,17.37
2023-02-23T19:17:36.504Z,21.33
2023-02-23T19:20:07.897Z,17.03
2023-02-23T19:22:35.036Z,21.67
2023-02-23T19:25:01.878Z,19.67
2023-02-23T19:27:28.435Z,21.87
2023-02-23T19:29:55.012Z,19.20
2023-02-23T19:32:21.728Z,18.17
2023-02-23T19:34:48.541Z,17.70
2023-02-23T19:37:15.136Z,19.37
2023-02-23T19:39:41.751Z,19.83
2023-02-23T19:42:09.171Z,17.83
2023-02-23T19:44:35.896Z,19.23
2023-02-23T19:47:02.516Z,19.63
2023-02-23T19:52:31.275Z,20.10
2023-02-23T19:55:00.651Z,20.53
2023-02-23T19:57:28.164Z,20.17
2023-02-23T19:59:54.845Z,20.37
2023-02-23T20:02:21.588Z,20.70
2023-02-23T20:04:49.565Z,21.30
2023-02-23T20:07:17.881Z,18.77
2023-02-23T20:09:44.985Z,20.43
2023-02-23T20:12:11.670Z,19.73
2023-02-23T20:14:39.654Z,21.83
2023-02-23T20:17:07.099Z,17.33
2023-02-23T20:19:33.830Z,19.17
2023-02-23T20:22:00.954Z,22.63
2023-02-23T20:24:27.783Z,20.73
2023-02-23T20:26:56.198Z,21.87
2023-02-23T20:29:22.854Z,24.83
2023-02-23T20:31:51.538Z,20.00
2023-02-23T20:34:22.742Z,23.07
2023-02-23T20:36:51.009Z,22.23
2023-02-23T20:39:18.469Z,22.00
2023-02-23T20:41:47.599Z,23.17
2023-02-23T20:44:15.401Z,16.67
2023-02-23T20:46:43.724Z,22.90
2023-02-23T20:49:12.476Z,20.87
2023-02-23T20:51:40.558Z,20.47
2023-02-23T20:54:08.090Z,23.30
2023-02-23T20:56:34.813Z,17.23
2023-02-23T20:59:02.583Z,20.33
2023-02-23T21:01:29.279Z,20.70
2023-02-23T21:03:56.376Z,24.43
2023-02-23T21:06:24.808Z,18.43
2023-02-23T21:08:55.644Z,21.70
2023-02-23T21:11:27.208Z,17.53
2023-02-23T21:13:54.137Z,22.37
2023-02-23T21:16:23.545Z,18.33
2023-02-23T21:18:54.990Z,24.83
2023-02-23T21:21:21.900Z,23.40
2023-02-23T21:23:51.199Z,22.93
2023-02-23T21:26:22.978Z,22.83
2023-02-23T21:28:49.706Z,21.03
2023-02-23T21:31:16.445Z,26.70
2023-02-23T21:33:45.348Z,21.93
2023-02-23T21:36:13.086Z,19.50
2023-02-23T21:38:42.231Z,23.37
2023-02-23T21:41:10.092Z,22.37
2023-02-23T21:43:38.921Z,20.40
2023-02-23T21:46:12.247Z,23.00
2023-02-23T21:48:39.158Z,23.33
2023-02-23T21:51:08.621Z,18.63
2023-02-23T21:53:37.490Z,20.97
2023-02-23T21:56:21.045Z,28.07
2023-02-23T21:58:50.674Z,22.80
2023-02-23T22:01:21.235Z,26.17
2023-02-23T22:03:48.274Z,26.17
2023-02-23T22:06:20.533Z,24.60
2023-02-23T22:08:49.928Z,26.83
2023-02-23T22:11:19.582Z,26.50
2023-02-23T22:13:47.953Z,27.43
2023-02-23T22:16:17.621Z,26.53
2023-02-23T22:18:44.948Z,27.23
2023-02-23T22:21:12.586Z,26.67
2023-02-23T22:23:40.760Z,29.77
2023-02-23T22:26:08.921Z,26.60
2023-02-23T22:28:36.160Z,28.80
2023-02-23T22:31:04.805Z,28.43
2023-02-23T22:33:31.454Z,27.17
2023-02-23T22:36:01.731Z,26.63
2023-02-23T22:38:28.416Z,25.43
2023-02-23T22:40:55.434Z,27.85
2023-02-23T22:43:22.237Z,25.43
2023-02-23T22:45:54.595Z,32.13
2023-02-23T22:48:23.403Z,29.00
2023-02-23T22:50:51.066Z,28.73
2023-02-23T22:53:17.843Z,28.83
2023-02-23T22:55:54.206Z,28.67
2023-02-23T22:58:26.393Z,29.63
2023-02-23T23:01:03.661Z,30.73
2023-02-23T23:03:33.744Z,28.77
2023-02-23T23:06:04.388Z,30.87
2023-02-23T23:08:36.962Z,29.47
2023-02-23T23:11:11.945Z,30.33
2023-02-23T23:13:44.338Z,31.73
2023-02-23T23:16:28.894Z,31.27
2023-02-23T23:19:02.326Z,30.00
2023-02-23T23:21:31.790Z,27.23
2023-02-23T23:24:01.350Z,31.03
2023-02-23T23:26:29.000Z,28.60
2023-02-23T23:28:58.878Z,29.47
2023-02-23T23:31:29.025Z,33.47
2023-02-23T23:33:59.924Z,30.00
2023-02-23T23:36:31.910Z,34.33
2023-02-23T23:38:59.328Z,30.70
2023-02-23T23:41:27.515Z,30.77
2023-02-23T23:43:56.880Z,29.83
2023-02-23T23:46:29.813Z,27.87
2023-02-23T23:49:02.149Z,31.73
2023-02-23T23:51:31.454Z,32.87
2023-02-23T23:54:00.784Z,32.90
2023-02-23T23:56:30.457Z,33.30
2023-02-23T23:58:58.276Z,35.13
